Time;durP1;ratioP1;P1;durP2;ratioP2;P2;SDS_P1;SDS_P2;PMS_P1;PMS_P2;Temp;Humidity;BMP_temperature;BMP_pressure;BME280_temperature;BME280_humidity;BME280_pressure;Samples;Min_cycle;Max_cycle;Signal;HPM_P1;HPM_P2
2022/09/13 00:02:07;;;;;;;13.77;7.72;;;;;;;16.44;96.78;100970.19;5031838;28;20163;-71
2022/09/13 00:04:33;;;;;;;12.75;6.35;;;;;;;16.44;97.10;100975.47;5032207;28;20025;-71
2022/09/13 00:06:58;;;;;;;11.57;7.00;;;;;;;16.45;97.75;100977.16;5032448;28;20430;-71
2022/09/13 00:09:23;;;;;;;10.48;7.20;;;;;;;16.42;96.91;100966.81;5031248;28;20036;-71
2022/09/13 00:11:50;;;;;;;10.57;6.15;;;;;;;16.46;96.45;100985.00;5032235;28;20029;-71
2022/09/13 00:14:15;;;;;;;7.63;6.55;;;;;;;16.48;96.65;100977.91;5033276;28;20124;-71
2022/09/13 00:16:40;;;;;;;7.30;6.45;;;;;;;16.43;96.46;100976.41;5035575;28;20112;-71
2022/09/13 00:19:06;;;;;;;10.95;6.57;;;;;;;16.45;96.82;100964.88;5036158;28;20477;-71
2022/09/13 00:21:31;;;;;;;8.43;6.57;;;;;;;16.47;96.44;100968.28;5035056;28;20067;-71
2022/09/13 00:23:57;;;;;;;11.55;7.15;;;;;;;16.46;95.67;100952.56;5035988;28;20370;-71
2022/09/13 00:26:25;;;;;;;10.50;7.45;;;;;;;16.47;95.87;100949.00;5035687;28;20075;-71
2022/09/13 00:28:52;;;;;;;12.27;7.05;;;;;;;16.46;96.35;100956.06;5034997;28;20021;-71
2022/09/13 00:31:18;;;;;;;12.80;6.93;;;;;;;16.47;95.27;100959.53;5035465;28;20033;-71
2022/09/13 00:33:43;;;;;;;15.65;7.30;;;;;;;16.47;96.01;100954.28;5035970;28;20057;-71
2022/09/13 00:36:10;;;;;;;14.52;7.32;;;;;;;16.47;95.96;100957.75;5035120;28;20064;-71
2022/09/13 00:38:39;;;;;;;15.80;7.20;;;;;;;16.47;96.03;100955.13;5035750;28;20384;-71
2022/09/13 00:41:07;;;;;;;16.00;7.55;;;;;;;16.46;96.40;100952.56;5035593;28;20033;-71
2022/09/13 00:43:55;;;;;;;21.33;7.53;;;;;;;16.43;95.72;100958.81;5034458;28;20354;-71
2022/09/13 00:46:26;;;;;;;10.43;7.22;;;;;;;16.38;96.08;100942.38;5035392;28;20053;-71
2022/09/13 00:48:58;;;;;;;14.95;7.03;;;;;;;16.36;95.95;100942.47;5035402;28;20056;-72
2022/09/13 00:51:25;;;;;;;12.60;7.38;;;;;;;16.35;96.15;100930.25;5034334;28;20048;-71
2022/09/13 00:53:55;;;;;;;10.88;7.03;;;;;;;16.38;96.71;100935.38;5035383;28;20025;-71
2022/09/13 00:56:27;;;;;;;15.95;7.97;;;;;;;16.25;95.88;100904.41;5035267;28;20049;-71
2022/09/13 00:59:08;;;;;;;11.57;7.15;;;;;;;16.39;96.63;100930.97;5034654;28;20029;-71
2022/09/13 01:01:40;;;;;;;11.75;6.97;;;;;;;16.39;96.64;100936.22;5035031;28;20473;-71
2022/09/13 01:04:06;;;;;;;8.50;6.85;;;;;;;16.40;96.75;100930.03;5034581;28;20026;-71
2022/09/13 01:06:36;;;;;;;13.27;7.03;;;;;;;16.39;97.22;100933.59;5035110;28;20024;-71
2022/09/13 01:09:03;;;;;;;14.25;6.78;;;;;;;16.37;97.81;100923.13;5035352;28;20048;-71
2022/09/13 01:11:41;;;;;;;9.90;7.05;;;;;;;16.40;96.96;100932.66;5034044;28;20481;-71
2022/09/13 01:14:08;;;;;;;13.43;7.07;;;;;;;16.39;96.64;100928.31;5035225;28;20091;-71
2022/09/13 01:16:33;;;;;;;10.15;6.93;;;;;;;16.35;96.92;100919.72;5034689;28;20028;-71
2022/09/13 01:18:59;;;;;;;8.32;7.03;;;;;;;16.36;96.63;100916.16;5034431;28;20025;-71
2022/09/13 01:22:00;;;;;;;12.27;6.72;;;;;;;16.42;96.83;100925.56;5034848;28;20030;-71
2022/09/13 01:24:54;;;;;;;9.82;6.72;;;;;;;16.43;96.77;100929.03;5034724;28;20030;-71
2022/09/13 01:27:28;;;;;;;10.95;6.45;;;;;;;16.43;96.41;100916.72;5034540;28;20466;-71
2022/09/13 01:30:21;;;;;;;7.88;6.68;;;;;;;16.42;97.41;100916.81;5035075;28;20033;-71
2022/09/13 01:33:12;;;;;;;8.25;6.43;;;;;;;16.42;97.43;100922.94;5033943;28;20132;-71
2022/09/13 01:35:43;;;;;;;7.50;6.65;;;;;;;16.38;97.89;100914.31;5034737;28;20029;-71
2022/09/13 01:38:23;;;;;;;6.93;6.22;;;;;;;16.39;98.31;100912.53;5034621;28;20030;-71
2022/09/13 01:41:05;;;;;;;8.35;6.40;;;;;;;16.36;98.35;100910.06;5033900;28;20037;-71
2022/09/13 01:43:52;;;;;;;9.35;6.50;;;;;;;16.40;96.72;100911.59;5034344;28;20042;-71
2022/09/13 01:46:34;;;;;;;7.82;5.75;;;;;;;16.28;97.04;100899.00;5033638;28;20134;-71
2022/09/13 01:49:16;;;;;;;10.10;6.13;;;;;;;16.38;97.34;100916.06;5034381;28;20393;-71
2022/09/13 01:52:04;;;;;;;9.82;6.57;;;;;;;16.39;96.75;100908.13;5034426;28;20120;-71
2022/09/13 01:54:50;;;;;;;9.10;5.95;;;;;;;16.44;97.13;100902.63;5023621;28;20469;-71
2022/09/13 01:57:26;;;;;;;8.77;6.50;;;;;;;16.44;96.68;100909.69;5034137;28;20064;-71
2022/09/13 02:00:09;;;;;;;7.10;5.70;;;;;;;16.44;96.49;100905.28;5034030;28;20022;-71
2022/09/13 02:02:44;;;;;;;9.40;6.45;;;;;;;16.38;97.25;100898.53;5033973;28;20033;-71
2022/09/13 02:05:19;;;;;;;7.20;6.25;;;;;;;16.41;97.13;100904.56;5034286;28;20117;-71
2022/09/13 02:07:59;;;;;;;8.13;5.88;;;;;;;16.35;97.17;100909.19;5033562;28;20059;-71
2022/09/13 02:10:40;;;;;;;9.85;6.30;;;;;;;16.33;98.70;100910.19;5033779;28;20379;-71
2022/09/13 02:13:12;;;;;;;10.77;6.53;;;;;;;16.29;99.63;100898.13;5034102;28;20041;-71
2022/09/13 02:15:42;;;;;;;10.52;6.43;;;;;;;16.25;100.00;100914.94;5033011;28;20033;-71
2022/09/13 02:18:11;;;;;;;7.93;6.25;;;;;;;16.25;100.00;100907.94;5033952;28;20105;-71
2022/09/13 02:20:42;;;;;;;9.20;6.28;;;;;;;16.21;100.00;100903.72;5033798;28;20032;-71
2022/09/13 02:23:13;;;;;;;7.95;6.22;;;;;;;16.22;100.00;100910.69;5033062;28;20029;-71
2022/09/13 02:25:40;;;;;;;8.70;6.53;;;;;;;16.23;100.00;100904.50;5033907;28;20025;-71
2022/09/13 02:28:09;;;;;;;8.23;6.60;;;;;;;16.20;100.00;100909.06;5033110;28;20072;-71
2022/09/13 02:30:39;;;;;;;9.13;6.75;;;;;;;16.22;100.00;100912.44;5033545;28;20112;-71
2022/09/13 02:33:24;;;;;;;7.63;6.28;;;;;;;16.20;100.00;100920.41;5033396;28;20428;-71
2022/09/13 02:35:52;;;;;;;9.65;6.65;;;;;;;16.20;100.00;100923.06;5032708;28;20556;-71
2022/09/13 02:38:26;;;;;;;9.93;6.28;;;;;;;16.20;100.00;100914.31;5032675;28;20473;-71
2022/09/13 02:41:02;;;;;;;7.03;5.90;;;;;;;16.22;100.00;100930.84;5033685;28;20029;-71
2022/09/13 02:43:39;;;;;;;8.65;6.20;;;;;;;16.24;100.00;100936.91;5032457;28;20041;-71
2022/09/13 02:46:40;;;;;;;8.90;6.20;;;;;;;16.23;100.00;100935.22;5033256;28;20079;-71
2022/09/13 02:49:12;;;;;;;8.05;6.40;;;;;;;16.26;100.00;100943.81;5032860;28;20046;-71
2022/09/13 02:51:51;;;;;;;8.68;6.20;;;;;;;16.26;100.00;100941.19;5033179;28;20029;-71
2022/09/13 02:54:32;;;;;;;6.95;6.18;;;;;;;16.26;100.00;100941.19;5032896;28;20496;-71
2022/09/13 02:57:11;;;;;;;7.35;6.35;;;;;;;16.25;100.00;100939.50;5032648;28;20068;-71
2022/09/13 02:59:36;;;;;;;8.45;6.43;;;;;;;16.26;100.00;100941.19;5032822;28;20057;-71
2022/09/13 03:02:13;;;;;;;10.45;6.45;;;;;;;16.25;100.00;100938.59;5033187;28;20060;-71
2022/09/13 03:04:38;;;;;;;9.57;6.43;;;;;;;16.21;100.00;100930.00;5032023;28;20461;-71
2022/09/13 03:07:09;;;;;;;7.50;6.53;;;;;;;16.26;100.00;100932.44;5032945;28;20034;-71
2022/09/13 03:09:35;;;;;;;8.60;5.97;;;;;;;16.25;100.00;100930.72;5032904;28;20428;-71
2022/09/13 03:12:35;;;;;;;10.95;6.15;;;;;;;16.23;100.00;100929.97;5032271;28;20079;-71
2022/09/13 03:15:08;;;;;;;7.90;5.95;;;;;;;16.23;100.00;100936.06;5019865;28;20397;-71
2022/09/13 03:17:53;;;;;;;11.53;6.93;;;;;;;16.24;100.00;100934.28;5032245;28;20067;-72
2022/09/13 03:20:42;;;;;;;8.93;5.72;;;;;;;16.23;100.00;100920.28;5032693;28;20057;-71
2022/09/13 03:23:31;;;;;;;10.23;6.15;;;;;;;16.22;100.00;100913.31;5003757;28;20490;-72
2022/09/13 03:26:20;;;;;;;9.15;6.72;;;;;;;16.25;100.00;100928.09;5031993;28;20037;-72
2022/09/13 03:29:07;;;;;;;12.15;6.57;;;;;;;16.25;100.00;100918.44;5033017;28;20038;-71
2022/09/13 03:31:57;;;;;;;8.77;6.25;;;;;;;16.25;100.00;100917.56;5031841;28;20034;-71
2022/09/13 03:34:39;;;;;;;9.52;5.93;;;;;;;16.22;100.00;100925.59;5032637;28;20099;-71
2022/09/13 03:37:11;;;;;;;7.43;6.07;;;;;;;16.21;100.00;100916.84;5032818;28;20034;-71
2022/09/13 03:39:47;;;;;;;7.90;5.85;;;;;;;16.21;100.00;100916.00;5031818;28;20100;-71
2022/09/13 03:42:31;;;;;;;7.25;6.18;;;;;;;16.17;100.00;100914.44;5032725;28;20108;-71
2022/09/13 03:44:58;;;;;;;;;;;;;;;16.21;100.00;100924.75;5033254;28;20029;-71
2022/09/13 03:47:27;;;;;;;9.93;6.35;;;;;;;16.19;100.00;100920.50;5031674;28;19913;-71
2022/09/13 03:49:53;;;;;;;8.65;6.28;;;;;;;16.18;100.00;100921.41;5033358;28;20565;-71
2022/09/13 03:52:19;;;;;;;8.85;6.63;;;;;;;16.11;100.00;100910.31;5034783;28;20064;-71
2022/09/13 03:54:44;;;;;;;10.93;6.93;;;;;;;16.11;100.00;100905.06;5034401;28;20025;-71
2022/09/13 03:57:11;;;;;;;8.45;6.78;;;;;;;16.11;100.00;100912.94;5035062;28;20036;-71
2022/09/13 03:59:40;;;;;;;7.88;6.28;;;;;;;16.08;100.00;100919.19;5034187;28;20548;-71
2022/09/13 04:02:10;;;;;;;8.18;6.32;;;;;;;16.04;100.00;100904.47;5035205;28;20030;-71
2022/09/13 04:04:36;;;;;;;12.63;7.18;;;;;;;16.09;100.00;100913.03;5034860;28;20037;-71
2022/09/13 04:07:03;;;;;;;12.73;6.57;;;;;;;16.10;100.00;100909.47;5034320;28;20038;-70
2022/09/13 04:09:29;;;;;;;11.18;7.25;;;;;;;16.11;100.00;100915.56;5034608;28;20025;-71
2022/09/13 04:11:54;;;;;;;11.90;8.00;;;;;;;16.11;100.00;100920.84;5034867;28;20512;-71
2022/09/13 04:14:20;;;;;;;14.02;7.40;;;;;;;16.11;100.00;100916.41;5034007;28;20113;-71
2022/09/13 04:16:45;;;;;;;13.48;6.65;;;;;;;16.11;100.00;100926.09;5035034;28;20021;-71
2022/09/13 04:19:11;;;;;;;11.25;7.47;;;;;;;16.11;100.00;100942.72;5034880;28;20147;-71
2022/09/13 04:21:37;;;;;;;10.23;7.13;;;;;;;16.06;100.00;100928.94;5033756;28;20392;-71
2022/09/13 04:24:02;;;;;;;8.90;7.13;;;;;;;15.97;100.00;100933.75;5034661;28;20037;-71
2022/09/13 04:26:28;;;;;;;8.77;6.85;;;;;;;15.85;100.00;100937.75;5034353;28;20185;-71
2022/09/13 04:28:53;;;;;;;10.18;7.15;;;;;;;15.83;100.00;100932.59;5034066;28;20036;-71
2022/09/13 04:31:18;;;;;;;11.23;8.00;;;;;;;15.78;100.00;100946.84;5034430;28;20108;-71
2022/09/13 04:33:44;;;;;;;13.25;7.70;;;;;;;15.70;100.00;100941.09;5034761;28;20469;-71
2022/09/13 04:36:09;;;;;;;12.88;7.72;;;;;;;15.65;100.00;100954.38;5033757;28;20033;-71
2022/09/13 04:38:36;;;;;;;10.27;7.63;;;;;;;15.55;100.00;100953.91;5034230;28;20033;-71
2022/09/13 04:41:01;;;;;;;10.38;8.20;;;;;;;15.53;100.00;100960.13;5034689;28;20021;-71
2022/09/13 04:43:26;;;;;;;13.02;7.97;;;;;;;15.48;100.00;100960.34;5033654;28;20025;-71
2022/09/13 04:45:51;;;;;;;10.82;8.10;;;;;;;15.47;100.00;100961.28;5034502;28;20025;-71
2022/09/13 04:48:17;;;;;;;10.00;7.65;;;;;;;15.44;100.00;100962.25;5034069;28;20087;-71
2022/09/13 04:50:43;;;;;;;9.82;8.82;;;;;;;15.43;100.00;100963.19;4997912;28;1047389;-71
2022/09/13 04:53:09;;;;;;;12.10;8.02;;;;;;;15.45;100.00;100949.97;5035298;28;20109;-71
2022/09/13 04:55:35;;;;;;;11.43;8.43;;;;;;;15.45;100.00;100942.09;5035342;28;20025;-71
2022/09/13 04:58:01;;;;;;;10.80;8.13;;;;;;;15.37;100.00;100933.69;5034616;28;20022;-71
2022/09/13 05:00:27;;;;;;;10.20;8.15;;;;;;;15.56;100.00;100960.00;5034718;28;20036;-71
2022/09/13 05:02:56;;;;;;;13.50;8.80;;;;;;;15.56;100.00;100954.75;5034620;28;20057;-71
2022/09/13 05:05:22;;;;;;;9.80;8.18;;;;;;;15.55;100.00;100951.28;5034976;28;20052;-71
2022/09/13 05:07:51;;;;;;;11.98;7.45;;;;;;;15.59;100.00;100950.22;5035213;28;20022;-71
2022/09/13 05:10:17;;;;;;;12.60;7.50;;;;;;;15.64;100.00;100953.53;5034089;28;20446;-71
2022/09/13 05:12:42;;;;;;;9.93;7.47;;;;;;;15.64;100.00;100944.78;5035278;28;20120;-71
2022/09/13 05:15:09;;;;;;;11.23;7.80;;;;;;;15.71;100.00;100953.28;5035009;28;20029;-71
2022/09/13 05:17:34;;;;;;;10.32;7.43;;;;;;;15.59;100.00;100931.81;5034108;28;20049;-71
2022/09/13 05:20:00;;;;;;;11.70;8.15;;;;;;;15.64;100.00;100931.66;5034918;28;20072;-71
2022/09/13 05:22:25;;;;;;;12.40;8.10;;;;;;;15.71;100.00;100942.78;5034548;28;20083;-71
2022/09/13 05:24:50;;;;;;;9.40;7.45;;;;;;;15.73;100.00;100948.81;5034313;28;20462;-71
2022/09/13 05:27:16;;;;;;;8.30;7.38;;;;;;;15.79;100.00;100951.16;5034720;28;20036;-71
2022/09/13 05:29:41;;;;;;;10.32;7.10;;;;;;;15.80;100.00;100959.00;5034720;28;20026;-71
2022/09/13 05:32:06;;;;;;;9.18;7.68;;;;;;;15.75;100.00;100939.09;5034002;28;20060;-71
2022/09/13 05:34:34;;;;;;;11.50;7.45;;;;;;;15.71;100.00;100941.00;5034438;28;20382;-71
2022/09/13 05:37:00;;;;;;;11.95;7.72;;;;;;;15.79;100.00;100957.28;5034604;28;20104;-71
2022/09/13 05:39:25;;;;;;;12.10;8.25;;;;;;;15.85;100.00;100962.28;5033871;28;20544;-71
2022/09/13 05:41:50;;;;;;;9.68;7.25;;;;;;;15.86;100.00;100958.75;5034733;28;20033;-71
2022/09/13 05:44:16;;;;;;;10.68;7.65;;;;;;;15.89;100.00;100963.88;5034379;28;20022;-71
2022/09/13 05:46:42;;;;;;;10.65;8.32;;;;;;;15.91;100.00;100964.63;5033624;28;20465;-71
2022/09/13 05:49:07;;;;;;;9.68;7.93;;;;;;;16.03;100.00;100967.66;5034451;28;20073;-71
2022/09/13 05:51:32;;;;;;;11.95;8.40;;;;;;;15.94;100.00;100953.16;5033993;28;20163;-71
2022/09/13 05:53:58;;;;;;;10.20;7.75;;;;;;;16.03;100.00;100960.63;5033758;28;20080;-71
2022/09/13 05:56:27;;;;;;;9.13;7.50;;;;;;;16.12;100.00;100962.84;5034131;28;20496;-71
2022/09/13 05:58:53;;;;;;;10.68;7.57;;;;;;;16.13;100.00;100959.28;5034335;28;20045;-71
2022/09/13 06:01:21;;;;;;;10.63;7.22;;;;;;;16.19;100.00;100973.97;5033173;28;20487;-71
2022/09/13 06:03:48;;;;;;;8.50;6.97;;;;;;;16.22;100.00;100965.06;5034302;28;20026;-71
2022/09/13 06:06:13;;;;;;;12.35;7.93;;;;;;;16.22;100.00;100960.66;5033323;28;20031;-71
2022/09/13 06:08:39;;;;;;;10.80;7.88;;;;;;;16.30;100.00;100973.47;5034006;28;20029;-71
2022/09/13 06:11:06;;;;;;;12.27;8.27;;;;;;;16.31;100.00;100975.16;5033717;28;20036;-71
2022/09/13 06:13:32;;;;;;;10.93;7.57;;;;;;;16.30;100.00;100957.69;5032580;28;20021;-71
2022/09/13 06:15:59;;;;;;;9.63;7.85;;;;;;;16.38;100.00;100972.22;5033989;28;20026;-71
2022/09/13 06:18:25;;;;;;;9.68;7.38;;;;;;;16.35;100.00;100950.44;5033578;28;20025;-71
2022/09/13 06:20:56;;;;;;;10.27;8.07;;;;;;;16.49;100.00;100969.06;5033022;28;20022;-71
2022/09/13 06:23:21;;;;;;;11.05;7.85;;;;;;;16.54;100.00;100959.19;5033634;28;20041;-71
2022/09/13 06:25:46;;;;;;;8.52;7.00;;;;;;;16.53;100.00;100946.09;5033602;28;20087;-71
2022/09/13 06:28:12;;;;;;;10.25;8.23;;;;;;;16.65;100.00;100957.84;5033027;28;20573;-71
2022/09/13 06:30:37;;;;;;;12.70;7.78;;;;;;;16.71;100.00;100957.53;5033461;28;20033;-71
2022/09/13 06:33:03;;;;;;;13.98;8.60;;;;;;;16.76;100.00;100959.06;5033581;28;20030;-71
2022/09/13 06:35:28;;;;;;;12.85;8.40;;;;;;;16.82;100.00;100957.94;5032494;28;20397;-71
2022/09/13 06:37:56;;;;;;;12.50;8.35;;;;;;;16.85;100.00;100961.25;5033654;28;20120;-71
2022/09/13 06:40:22;;;;;;;11.98;9.32;;;;;;;16.89;100.00;100951.44;5033299;28;20022;-71
2022/09/13 06:42:50;;;;;;;11.40;8.57;;;;;;;16.97;100.00;100957.19;5032758;28;20036;-71
2022/09/13 06:45:16;;;;;;;12.23;9.40;;;;;;;16.99;100.00;100957.13;5033396;28;20030;-71
2022/09/13 06:47:41;;;;;;;11.98;8.70;;;;;;;17.05;100.00;100951.56;5033574;28;20025;-71
2022/09/13 06:50:07;;;;;;;14.27;9.23;;;;;;;17.09;100.00;100959.22;5031894;28;20050;-71
2022/09/13 06:52:32;;;;;;;12.52;9.98;;;;;;;17.12;100.00;100962.63;5033146;28;20427;-71
2022/09/13 06:54:58;;;;;;;12.00;9.73;;;;;;;17.12;100.00;100952.94;5033304;28;20026;-71
2022/09/13 06:57:23;;;;;;;10.05;9.05;;;;;;;17.17;100.00;100960.66;5032238;28;20053;-71
2022/09/13 06:59:48;;;;;;;14.00;9.85;;;;;;;17.20;100.00;100966.63;5033226;28;20108;-71
2022/09/13 07:02:14;;;;;;;16.10;9.15;;;;;;;17.21;99.62;100954.28;5033033;28;20029;-71
2022/09/13 07:04:39;;;;;;;13.10;11.00;;;;;;;17.24;98.89;100962.06;5032305;28;20029;-71
2022/09/13 07:07:05;;;;;;;13.15;10.85;;;;;;;17.31;96.11;100964.28;5033241;28;20026;-71
2022/09/13 07:09:30;;;;;;;15.32;11.27;;;;;;;17.36;95.62;100958.78;5031942;28;20034;-72
2022/09/13 07:11:56;;;;;;;12.13;10.10;;;;;;;17.42;97.45;100968.16;5033080;28;20500;-72
2022/09/13 07:14:23;;;;;;;13.88;11.50;;;;;;;17.47;96.35;100968.81;5032673;28;20029;-71
2022/09/13 07:16:50;;;;;;;14.45;11.77;;;;;;;17.58;94.56;100960.34;5032126;28;20140;-71
2022/09/13 07:19:18;;;;;;;16.73;11.93;;;;;;;17.61;95.23;100961.06;5032503;28;20473;-71
2022/09/13 07:21:44;;;;;;;17.08;12.02;;;;;;;17.67;95.59;100960.75;5032821;28;20057;-71
2022/09/13 07:24:10;;;;;;;18.05;11.90;;;;;;;17.75;94.47;100963.81;5032112;28;20096;-71
2022/09/13 07:26:36;;;;;;;16.20;12.90;;;;;;;17.80;93.95;100965.41;5032529;28;20478;-71
2022/09/13 07:29:07;;;;;;;22.60;13.45;;;;;;;17.90;93.17;100964.84;5032802;28;20082;-71
2022/09/13 07:31:36;;;;;;;16.60;12.95;;;;;;;18.02;92.45;100971.28;5031615;28;20128;-71
2022/09/13 07:34:04;;;;;;;21.65;13.43;;;;;;;18.09;92.13;100977.09;5032867;28;20033;-71
2022/09/13 07:36:31;;;;;;;15.57;13.10;;;;;;;18.12;91.34;100969.88;5032329;28;20474;-71
2022/09/13 07:38:57;;;;;;;15.55;13.02;;;;;;;18.16;92.65;100973.19;5032196;28;20033;-71
2022/09/13 07:41:24;;;;;;;16.98;13.13;;;;;;;18.25;91.86;100972.72;5032321;28;20025;-71
2022/09/13 07:43:51;;;;;;;18.42;13.63;;;;;;;18.31;91.42;100968.88;5032589;28;20024;-71
2022/09/13 07:46:21;;;;;;;16.48;14.68;;;;;;;18.44;90.49;100975.19;5031446;28;20156;-71
2022/09/13 07:48:47;;;;;;;20.33;15.15;;;;;;;18.45;89.63;100971.63;5032688;28;20022;-72
2022/09/13 07:51:15;;;;;;;17.67;14.80;;;;;;;18.50;91.16;100974.88;5032630;28;20032;-71
2022/09/13 07:53:44;;;;;;;17.42;14.45;;;;;;;18.62;90.33;100978.63;5032027;28;20065;-71
2022/09/13 07:56:15;;;;;;;19.33;15.07;;;;;;;18.67;90.72;100985.38;5032608;28;20026;-71
2022/09/13 07:58:41;;;;;;;20.83;16.48;;;;;;;18.73;89.33;100984.19;5031570;28;20026;-72
2022/09/13 08:01:29;;;;;;;23.73;17.08;;;;;;;18.82;90.53;100988.13;5032784;28;20021;-75
2022/09/13 08:04:05;;;;;;;21.35;15.77;;;;;;;18.88;90.22;100991.28;5032522;28;20021;-71
2022/09/13 08:06:33;;;;;;;23.35;18.58;;;;;;;18.94;87.60;100987.44;5031534;28;20021;-71
2022/09/13 08:08:58;;;;;;;21.80;17.80;;;;;;;19.00;89.01;100987.09;5032298;28;20141;-71
2022/09/13 08:11:35;;;;;;;21.70;16.90;;;;;;;19.03;89.88;100972.84;5031999;28;20381;-72
2022/09/13 08:14:02;;;;;;;22.77;19.30;;;;;;;19.27;87.90;100999.69;5031670;28;20404;-71
2022/09/13 08:16:29;;;;;;;23.02;19.02;;;;;;;19.38;88.12;100989.34;5032037;28;20466;-72
2022/09/13 08:18:56;;;;;;;26.35;19.95;;;;;;;19.47;86.69;100986.16;5032400;28;20017;-72
2022/09/13 08:21:23;;;;;;;29.15;19.83;;;;;;;19.57;86.56;100987.31;5031251;28;20029;-71
2022/09/13 08:23:48;;;;;;;24.83;20.13;;;;;;;19.66;86.54;100988.63;5032803;28;20034;-71
2022/09/13 08:26:13;;;;;;;30.17;20.48;;;;;;;19.80;86.30;100986.00;5032165;28;20056;-71
2022/09/13 08:28:40;;;;;;;29.48;20.55;;;;;;;19.88;86.62;100991.69;5031322;28;20017;-71
2022/09/13 08:31:07;;;;;;;26.77;20.90;;;;;;;19.99;83.87;101000.78;5032262;28;20025;-72
2022/09/13 08:33:34;;;;;;;26.75;20.73;;;;;;;20.11;84.10;101005.34;5032112;28;20029;-71
2022/09/13 08:35:59;;;;;;;26.15;20.92;;;;;;;20.21;84.67;101000.31;5033708;28;20072;-71
2022/09/13 08:38:24;;;;;;;23.67;20.75;;;;;;;20.29;83.98;101000.69;5035403;28;20074;-72
2022/09/13 08:40:55;;;;;;;27.17;22.27;;;;;;;20.29;82.23;100998.03;5035211;28;20047;-72
2022/09/13 08:43:43;;;;;;;27.25;21.50;;;;;;;20.25;83.19;101005.34;5035750;28;20118;-71
2022/09/13 08:46:32;;;;;;;31.00;22.92;;;;;;;20.32;84.51;101005.81;5035636;28;20593;-71
2022/09/13 08:49:03;;;;;;;26.83;22.25;;;;;;;20.39;83.51;101003.63;5034917;28;20040;-72
2022/09/13 08:51:31;;;;;;;29.63;23.00;;;;;;;20.51;84.88;101002.91;5035218;28;20470;-72
2022/09/13 08:53:58;;;;;;;24.05;20.95;;;;;;;20.59;84.39;101003.25;5035703;28;20171;-72
2022/09/13 08:57:01;;;;;;;31.77;19.17;;;;;;;20.65;83.63;101000.22;5034519;28;20025;-71
2022/09/13 08:59:53;;;;;;;29.63;23.70;;;;;;;20.67;83.70;100990.41;5035346;28;20037;-72
2022/09/13 09:02:23;;;;;;;29.00;21.85;;;;;;;20.87;83.32;100988.28;5034316;28;20433;-72
2022/09/13 09:05:00;;;;;;;27.58;22.08;;;;;;;20.97;83.26;100984.94;5035268;28;20452;-72
2022/09/13 09:07:30;;;;;;;26.63;22.30;;;;;;;21.07;81.17;100995.78;5035148;28;20037;-72
2022/09/13 09:10:14;;;;;;;25.02;22.42;;;;;;;21.11;81.54;100985.81;5034751;28;20045;-71
2022/09/13 09:12:49;;;;;;;27.77;22.80;;;;;;;21.13;81.13;100979.47;5034968;28;20033;-72
2022/09/13 09:15:41;;;;;;;31.42;22.73;;;;;;;21.18;81.04;100979.16;5035219;28;20021;-72
2022/09/13 09:18:28;;;;;;;21.92;19.13;;;;;;;21.19;81.51;100967.59;5034457;28;20454;-71
2022/09/13 09:20:56;;;;;;;22.55;19.10;;;;;;;21.36;82.18;100982.47;5035276;28;20029;-71
2022/09/13 09:23:27;;;;;;;22.70;19.08;;;;;;;21.32;80.01;100971.16;5034034;28;20037;-72
2022/09/13 09:25:56;;;;;;;24.40;19.02;;;;;;;21.57;78.86;100983.66;5035017;28;20080;-71
2022/09/13 09:28:22;;;;;;;24.70;18.55;;;;;;;21.81;79.01;100978.50;5034441;28;20029;-72
2022/09/13 09:31:17;;;;;;;20.17;17.92;;;;;;;21.95;78.42;100953.66;5034379;28;20021;-72
2022/09/13 09:34:14;;;;;;;23.48;17.35;;;;;;;22.20;77.78;100974.06;5034749;28;20509;-72
2022/09/13 09:36:46;;;;;;;21.90;17.85;;;;;;;22.47;76.83;100981.06;5034371;28;20063;-71
2022/09/13 09:39:15;;;;;;;21.13;17.80;;;;;;;22.56;74.05;100983.91;5034288;28;20018;-72
2022/09/13 09:41:42;;;;;;;22.05;17.25;;;;;;;22.70;74.17;100968.78;5034517;28;20477;-71
2022/09/13 09:44:08;;;;;;;23.55;17.77;;;;;;;22.85;74.52;100972.97;5033972;28;20417;-72
2022/09/13 09:46:37;;;;;;;24.37;20.27;;;;;;;23.02;74.70;100961.13;5033218;28;20021;-71
2022/09/13 09:50:08;;;;;;;22.08;19.05;;;;;;;23.06;71.51;100963.44;5034074;28;20505;-72
2022/09/13 09:52:00;;;;;;;21.20;17.60;;;;;;;23.00;71.56;100963.91;5033524;28;20037;-72
2022/09/13 09:54:26;;;;;;;26.13;18.38;;;;;;;23.00;72.04;100961.25;5034463;28;20033;-72
2022/09/13 09:56:53;;;;;;;24.40;19.77;;;;;;;23.00;71.00;100968.38;5034472;28;20037;-72
2022/09/13 09:59:25;;;;;;;24.08;19.58;;;;;;;23.07;72.38;100965.13;5033316;28;20029;-72
2022/09/13 10:01:50;;;;;;;21.17;16.77;;;;;;;23.21;72.46;100973.91;5034455;28;20040;-72
2022/09/13 10:04:21;;;;;;;22.77;16.77;;;;;;;23.29;73.56;100975.03;5034139;28;20021;-72
2022/09/13 10:06:48;;;;;;;23.30;18.23;;;;;;;23.25;70.62;100968.25;5033468;28;20060;-72
2022/09/13 10:09:21;;;;;;;19.67;15.98;;;;;;;23.27;70.57;100963.66;5034066;28;20478;-72
2022/09/13 10:11:52;;;;;;;22.65;17.48;;;;;;;23.27;72.32;100961.00;5034101;28;20030;-71
2022/09/13 10:14:38;;;;;;;19.38;15.45;;;;;;;23.42;74.03;100959.00;5033283;28;20018;-72
2022/09/13 10:17:24;;;;;;;24.05;13.52;;;;;;;23.62;73.73;100960.16;5033947;28;20037;-72
2022/09/13 10:20:11;;;;;;;17.88;14.40;;;;;;;23.79;70.67;100958.88;5033022;28;20022;-72
2022/09/13 10:22:36;;;;;;;19.92;15.05;;;;;;;23.82;70.02;100963.97;5033452;28;20024;-72
2022/09/13 10:25:23;;;;;;;20.77;16.50;;;;;;;23.91;70.06;100959.75;5033980;28;20432;-72
2022/09/13 10:27:54;;;;;;;18.05;13.90;;;;;;;24.10;70.72;100953.81;5033198;28;20116;-72
2022/09/13 10:30:39;;;;;;;18.13;14.80;;;;;;;24.37;70.39;100956.97;5033534;28;20057;-72
2022/09/13 10:33:07;;;;;;;17.52;14.52;;;;;;;24.38;66.63;100953.34;5033844;28;20033;-72
2022/09/13 10:35:32;;;;;;;17.15;14.43;;;;;;;24.22;67.26;100960.84;5032810;28;20022;-72
2022/09/13 10:37:58;;;;;;;15.98;12.88;;;;;;;24.13;68.30;100964.22;5033611;28;20395;-72
2022/09/13 10:40:38;;;;;;;15.18;12.10;;;;;;;24.02;69.27;100963.25;5032557;28;20029;-72
2022/09/13 10:43:06;;;;;;;13.40;11.05;;;;;;;23.89;71.84;100959.00;5033498;28;20045;-72
2022/09/13 10:45:33;;;;;;;12.02;10.70;;;;;;;23.89;69.06;100962.53;5033062;28;20049;-72
2022/09/13 10:48:11;;;;;;;19.05;12.95;;;;;;;23.89;69.73;100957.19;5032600;28;20119;-72
2022/09/13 10:50:37;;;;;;;13.50;11.30;;;;;;;23.92;68.40;100966.75;5033091;28;20140;-72
2022/09/13 10:53:04;;;;;;;14.90;10.77;;;;;;;23.91;68.43;100949.09;5033298;28;20097;-72
2022/09/13 10:55:39;;;;;;;12.80;10.30;;;;;;;24.22;71.16;100948.38;5032305;28;20396;-72
2022/09/13 10:58:04;;;;;;;15.77;11.52;;;;;;;24.46;69.20;100948.28;5033077;28;20029;-72
2022/09/13 11:00:55;;;;;;;16.20;13.93;;;;;;;24.60;67.16;100939.16;5033099;28;20144;-72
2022/09/13 11:03:58;;;;;;;19.92;13.85;;;;;;;24.75;68.34;100940.59;5032269;28;20091;-72
2022/09/13 11:06:41;;;;;;;17.45;12.55;;;;;;;24.92;68.45;100941.88;5032715;28;20520;-72
2022/09/13 11:09:15;;;;;;;15.40;12.63;;;;;;;25.06;66.44;100931.88;5032353;28;20496;-72
2022/09/13 11:12:02;;;;;;;16.52;12.27;;;;;;;25.28;67.83;100937.16;5032608;28;20486;-72
2022/09/13 11:14:37;;;;;;;17.02;13.85;;;;;;;25.32;67.29;100932.41;5032626;28;20036;-72
2022/09/13 11:17:18;;;;;;;17.25;11.85;;;;;;;25.78;67.90;100928.50;5032311;28;20029;-72
2022/09/13 11:20:13;;;;;;;17.23;13.10;;;;;;;26.16;65.26;100925.19;5033003;28;20061;-72
2022/09/13 11:22:53;;;;;;;12.88;10.48;;;;;;;26.24;63.46;100920.00;5006120;28;20057;-72
2022/09/13 11:25:24;;;;;;;13.68;10.82;;;;;;;26.31;61.29;100915.78;5032559;28;20128;-72
2022/09/13 11:28:23;;;;;;;13.60;10.43;;;;;;;26.55;63.43;100914.63;5032977;28;20070;-72
2022/09/13 11:31:07;;;;;;;16.90;10.40;;;;;;;26.71;59.73;100914.94;5032172;28;20205;-72
2022/09/13 11:33:48;;;;;;;13.40;9.95;;;;;;;27.11;61.62;100916.66;5032716;28;20037;-72